Time;durP1;ratioP1;P1;durP2;ratioP2;P2;SDS_P1;SDS_P2;PMS_P1;PMS_P2;Temp;Humidity;BMP_temperature;BMP_pressure;BME280_temperature;BME280_humidity;BME280_pressure;Samples;Min_cycle;Max_cycle;Signal;HPM_P1;HPM_P2
2024/02/14 00:00:04;;;;;;;2.30;2.10;;;6.50;99.90;;;;;;5035015;28;20207;-65
2024/02/14 00:02:30;;;;;;;2.75;2.53;;;6.50;99.90;;;;;;5034682;28;20210;-65
2024/02/14 00:04:58;;;;;;;6.63;2.92;;;6.50;99.90;;;;;;5034094;28;20293;-66
2024/02/14 00:07:26;;;;;;;3.35;2.13;;;6.50;99.90;;;;;;5033867;28;20661;-66
2024/02/14 00:09:53;;;;;;;5.53;2.38;;;6.50;99.90;;;;;;5033927;28;20206;-64
2024/02/14 00:12:24;;;;;;;2.55;2.00;;;6.40;99.90;;;;;;5035699;28;20306;-66
2024/02/14 00:14:51;;;;;;;3.60;2.20;;;6.40;99.90;;;;;;5050708;28;20245;-65
2024/02/14 00:17:17;;;;;;;2.38;2.15;;;6.40;99.90;;;;;;5050743;28;20223;-65
2024/02/14 00:19:44;;;;;;;2.38;1.70;;;6.40;99.90;;;;;;5036360;28;20652;-65
2024/02/14 00:22:11;;;;;;;3.50;1.63;;;6.40;99.90;;;;;;5034980;28;20257;-66
2024/02/14 00:24:38;;;;;;;3.00;2.03;;;6.40;99.90;;;;;;5033898;28;20742;-65
2024/02/14 00:27:05;;;;;;;4.82;1.80;;;6.40;99.90;;;;;;5033558;28;20202;-65
2024/02/14 00:29:33;;;;;;;2.20;1.65;;;6.40;99.90;;;;;;5036421;28;20681;-65
2024/02/14 00:32:00;;;;;;;2.50;2.30;;;6.40;99.90;;;;;;5037773;28;20206;-64
2024/02/14 00:34:27;;;;;;;4.85;2.70;;;6.50;99.90;;;;;;5037578;28;20222;-64
2024/02/14 00:36:54;;;;;;;2.28;2.08;;;6.50;99.90;;;;;;5037621;28;20206;-66
2024/02/14 00:39:21;;;;;;;2.20;1.90;;;6.50;99.90;;;;;;5037443;28;20233;-65
2024/02/14 00:41:48;;;;;;;2.97;2.13;;;6.50;99.90;;;;;;5037447;28;20199;-65
2024/02/14 00:44:16;;;;;;;2.20;1.83;;;6.50;99.90;;;;;;5037494;28;20262;-66
2024/02/14 00:46:44;;;;;;;3.33;1.85;;;6.50;99.90;;;;;;5037058;28;20312;-64
2024/02/14 00:49:12;;;;;;;2.42;2.20;;;6.60;99.90;;;;;;5037673;28;20210;-65
2024/02/14 00:51:39;;;;;;;2.03;1.83;;;6.60;99.90;;;;;;5037570;28;20206;-65
2024/02/14 00:54:06;;;;;;;3.55;2.35;;;6.60;99.90;;;;;;5037319;28;20277;-65
2024/02/14 00:56:33;;;;;;;4.60;2.50;;;6.60;99.90;;;;;;5037177;28;20203;-65
2024/02/14 00:59:00;;;;;;;2.63;2.00;;;6.60;99.90;;;;;;5037671;28;20233;-66
2024/02/14 01:01:27;;;;;;;3.03;1.92;;;6.60;99.90;;;;;;5037182;28;20597;-66
2024/02/14 01:03:55;;;;;;;2.47;2.13;;;6.60;99.90;;;;;;5040413;28;20226;-64
2024/02/14 01:06:22;;;;;;;2.33;2.13;;;6.60;99.90;;;;;;5041203;28;20203;-64
2024/02/14 01:08:49;;;;;;;4.00;2.22;;;6.60;99.90;;;;;;5038198;28;20210;-65
2024/02/14 01:11:16;;;;;;;3.25;2.30;;;6.60;99.90;;;;;;5037958;28;20214;-65
2024/02/14 01:13:43;;;;;;;2.85;2.28;;;6.60;99.90;;;;;;5037239;28;20245;-64
2024/02/14 01:16:10;;;;;;;3.78;2.65;;;6.70;99.90;;;;;;5036698;28;20570;-64
2024/02/14 01:18:36;;;;;;;4.15;2.60;;;6.70;99.90;;;;;;5036658;28;20219;-63
2024/02/14 01:21:05;;;;;;;4.25;2.55;;;6.70;99.90;;;;;;5037661;28;20207;-64
2024/02/14 01:23:32;;;;;;;3.95;2.47;;;6.70;99.90;;;;;;5036694;28;20610;-63
2024/02/14 01:25:59;;;;;;;2.80;2.45;;;6.70;99.90;;;;;;5036983;28;20226;-64
2024/02/14 01:28:26;;;;;;;4.70;2.38;;;6.80;99.90;;;;;;5036724;28;20199;-65
2024/02/14 01:30:53;;;;;;;2.50;1.88;;;6.80;99.90;;;;;;5037241;28;20673;-65
2024/02/14 01:33:20;;;;;;;4.53;2.40;;;6.80;99.90;;;;;;5037367;28;20210;-65
2024/02/14 01:35:46;;;;;;;4.30;2.10;;;6.90;99.90;;;;;;5036973;28;20210;-65
2024/02/14 01:38:15;;;;;;;4.28;2.30;;;6.90;99.90;;;;;;5036615;28;20222;-64
2024/02/14 01:40:44;;;;;;;2.95;2.22;;;6.90;99.90;;;;;;5035842;28;20206;-66
2024/02/14 01:43:11;;;;;;;4.78;2.00;;;7.00;99.90;;;;;;5036310;28;20249;-65
2024/02/14 01:45:38;;;;;;;2.35;1.92;;;7.00;99.90;;;;;;5036304;28;20210;-66
2024/02/14 01:48:07;;;;;;;3.58;2.22;;;7.00;99.90;;;;;;5036682;28;20249;-64
2024/02/14 01:50:34;;;;;;;3.08;2.30;;;7.00;99.90;;;;;;5036683;28;20207;-63
2024/02/14 01:53:02;;;;;;;6.10;2.20;;;7.00;99.90;;;;;;5036924;28;20215;-65
2024/02/14 01:55:30;;;;;;;3.05;2.50;;;7.00;99.90;;;;;;5036245;28;20309;-65
2024/02/14 01:57:57;;;;;;;5.20;3.22;;;7.00;99.90;;;;;;5036332;28;20223;-65
2024/02/14 02:00:24;;;;;;;4.85;2.65;;;7.10;99.90;;;;;;5044836;28;20207;-65
2024/02/14 02:02:51;;;;;;;3.58;2.40;;;7.10;99.90;;;;;;5052209;28;20194;-65
2024/02/14 02:05:18;;;;;;;2.17;1.98;;;7.10;99.90;;;;;;5052404;28;20223;-65
2024/02/14 02:07:48;;;;;;;4.07;2.85;;;7.10;99.90;;;;;;5050859;28;20232;-65
2024/02/14 02:10:15;;;;;;;4.38;2.47;;;7.10;99.90;;;;;;5053674;28;20211;-66
2024/02/14 02:12:43;;;;;;;3.85;3.00;;;7.10;99.90;;;;;;5055740;28;20270;-65
2024/02/14 02:15:12;;;;;;;2.50;2.25;;;7.10;99.90;;;;;;5053863;28;20236;-65
2024/02/14 02:17:39;;;;;;;4.22;2.58;;;7.10;99.90;;;;;;5051288;28;20210;-64
2024/02/14 02:20:08;;;;;;;2.83;2.58;;;7.10;99.90;;;;;;5035811;28;20207;-64
2024/02/14 02:22:36;;;;;;;3.72;2.55;;;7.10;99.90;;;;;;5036308;28;20214;-65
2024/02/14 02:25:07;;;;;;;3.30;3.00;;;7.10;99.90;;;;;;5035839;28;20222;-65
2024/02/14 02:27:37;;;;;;;3.33;2.58;;;7.00;99.90;;;;;;5036041;28;20192;-65
2024/02/14 02:30:05;;;;;;;3.42;2.75;;;7.00;99.90;;;;;;5036591;28;20634;-64
2024/02/14 02:32:32;;;;;;;4.93;2.25;;;7.00;99.90;;;;;;5048613;28;20206;-65
2024/02/14 02:34:59;;;;;;;3.35;2.70;;;7.00;99.90;;;;;;5037300;28;20243;-66
2024/02/14 02:37:26;;;;;;;3.00;2.67;;;7.00;99.90;;;;;;5038336;28;20302;-65
2024/02/14 02:39:53;;;;;;;4.95;2.85;;;7.00;99.90;;;;;;5037615;28;20219;-65
2024/02/14 02:42:21;;;;;;;4.10;3.10;;;6.90;99.90;;;;;;5037990;28;20209;-64
2024/02/14 02:44:50;;;;;;;3.78;2.50;;;6.90;99.90;;;;;;5037276;28;20229;-66
2024/02/14 02:47:17;;;;;;;3.45;3.00;;;6.90;99.90;;;;;;5042246;28;20203;-65
2024/02/14 02:49:44;;;;;;;3.88;2.83;;;6.90;99.90;;;;;;5046543;28;20198;-66
2024/02/14 02:52:11;;;;;;;4.43;3.40;;;6.80;99.90;;;;;;5050226;28;20207;-66
2024/02/14 02:54:40;;;;;;;4.10;3.42;;;6.80;99.90;;;;;;5045305;28;20313;-65
2024/02/14 02:57:07;;;;;;;4.43;2.95;;;6.80;99.90;;;;;;5047061;28;20258;-65
2024/02/14 02:59:36;;;;;;;5.30;3.25;;;6.80;99.90;;;;;;5035123;28;20219;-65
2024/02/14 03:02:03;;;;;;;5.70;3.72;;;6.80;99.90;;;;;;5035115;28;20202;-65
2024/02/14 03:04:31;;;;;;;6.32;2.90;;;6.80;99.90;;;;;;5035268;28;20223;-66
2024/02/14 03:06:58;;;;;;;4.63;3.13;;;6.80;99.90;;;;;;5035930;28;20261;-66
2024/02/14 03:09:27;;;;;;;4.18;3.78;;;6.80;99.90;;;;;;5035194;28;20203;-66
2024/02/14 03:11:56;;;;;;;5.25;4.00;;;6.80;99.90;;;;;;5034954;28;20211;-65
2024/02/14 03:14:23;;;;;;;5.88;3.95;;;6.80;99.90;;;;;;5034872;28;20224;-65
2024/02/14 03:16:52;;;;;;;3.85;3.28;;;6.80;99.90;;;;;;5034967;28;20203;-65
2024/02/14 03:19:18;;;;;;;7.93;3.35;;;6.80;99.90;;;;;;5034869;28;20228;-64
2024/02/14 03:21:46;;;;;;;5.18;3.97;;;6.80;99.90;;;;;;5036760;28;20207;-65
2024/02/14 03:24:14;;;;;;;4.88;3.38;;;6.90;99.90;;;;;;5035571;28;20222;-65
2024/02/14 03:26:41;;;;;;;5.28;3.50;;;6.80;99.90;;;;;;5035047;28;20268;-65
2024/02/14 03:29:08;;;;;;;8.70;3.70;;;6.90;99.90;;;;;;5034275;28;20716;-65
2024/02/14 03:31:35;;;;;;;4.93;3.72;;;6.90;99.90;;;;;;5034175;28;20214;-65
2024/02/14 03:34:03;;;;;;;6.03;3.30;;;6.90;99.90;;;;;;5034076;28;20226;-64
2024/02/14 03:36:30;;;;;;;3.30;3.00;;;6.90;99.90;;;;;;5033931;28;20697;-64
2024/02/14 03:38:57;;;;;;;5.43;3.38;;;6.90;99.90;;;;;;5033396;28;20214;-65
2024/02/14 03:41:24;;;;;;;3.70;3.17;;;6.90;99.90;;;;;;5033690;28;20641;-65
2024/02/14 03:43:52;;;;;;;4.55;3.45;;;6.90;99.90;;;;;;5037594;28;20219;-65
2024/02/14 03:46:21;;;;;;;4.95;3.17;;;6.90;99.90;;;;;;5044007;28;20265;-65
2024/02/14 03:48:48;;;;;;;6.05;3.50;;;6.90;99.90;;;;;;5043316;28;20203;-65
2024/02/14 03:51:17;;;;;;;6.30;3.33;;;6.90;99.90;;;;;;5043492;28;20204;-65
2024/02/14 03:53:44;;;;;;;5.43;3.25;;;7.00;99.90;;;;;;5040805;28;20228;-65
2024/02/14 03:56:12;;;;;;;4.70;3.53;;;7.00;99.90;;;;;;5041156;28;20207;-65
2024/02/14 03:58:39;;;;;;;3.13;2.75;;;7.00;99.90;;;;;;5040335;28;20220;-65
2024/02/14 04:01:06;;;;;;;6.20;3.60;;;7.00;99.90;;;;;;5037749;28;20202;-65
2024/02/14 04:03:33;;;;;;;5.78;3.20;;;7.00;99.90;;;;;;5037111;28;20226;-64
2024/02/14 04:06:00;;;;;;;6.32;2.85;;;7.00;99.90;;;;;;5035736;28;20203;-66
2024/02/14 04:08:29;;;;;;;3.60;3.20;;;7.10;99.90;;;;;;5034187;28;20256;-65
2024/02/14 04:13:11;;;;;;;4.70;3.28;;;7.00;99.90;;;;;;5091993;28;20534;-66
2024/02/14 04:15:38;;;;;;;6.15;3.17;;;7.00;99.90;;;;;;5091452;28;20216;-63
2024/02/14 04:18:06;;;;;;;6.75;2.88;;;7.00;99.90;;;;;;5097660;28;20216;-65
2024/02/14 04:20:32;;;;;;;6.20;3.60;;;7.10;99.90;;;;;;5105528;28;20219;-65
2024/02/14 04:22:59;;;;;;;12.07;3.05;;;7.10;99.90;;;;;;5104606;28;20200;-66
2024/02/14 04:25:26;;;;;;;5.60;3.40;;;7.10;99.90;;;;;;5107770;28;20221;-66
2024/02/14 04:27:53;;;;;;;3.58;3.03;;;7.10;99.90;;;;;;5110151;28;20185;-65
2024/02/14 04:30:21;;;;;;;7.18;3.17;;;7.20;99.90;;;;;;5110780;28;20200;-65
2024/02/14 04:32:49;;;;;;;6.85;4.07;;;7.20;99.90;;;;;;5110665;28;20240;-65
2024/02/14 04:35:15;;;;;;;5.18;3.00;;;7.20;99.90;;;;;;5110741;28;20221;-66
2024/02/14 04:37:46;;;;;;;6.38;3.17;;;7.20;99.90;;;;;;5109960;28;20212;-66
2024/02/14 04:40:14;;;;;;;4.72;3.30;;;7.20;99.90;;;;;;5104684;28;20188;-64
2024/02/14 04:42:40;;;;;;;6.60;4.43;;;7.20;99.90;;;;;;5090381;28;20222;-65
2024/02/14 04:45:08;;;;;;;5.00;3.60;;;7.10;99.90;;;;;;5090480;28;20228;-65
2024/02/14 04:47:36;;;;;;;5.68;3.50;;;7.10;99.90;;;;;;5090768;28;20201;-65
2024/02/14 04:50:04;;;;;;;6.80;3.28;;;7.00;99.90;;;;;;5091020;28;20217;-64
2024/02/14 04:52:30;;;;;;;3.97;3.38;;;7.00;99.90;;;;;;5090232;28;20635;-65
2024/02/14 04:54:57;;;;;;;5.00;3.58;;;6.90;99.90;;;;;;5090047;28;20733;-65
2024/02/14 04:57:25;;;;;;;5.57;3.88;;;6.90;99.90;;;;;;5090368;28;20208;-65
2024/02/14 04:59:51;;;;;;;9.00;4.30;;;6.90;99.90;;;;;;5089988;28;20212;-67
2024/02/14 05:02:18;;;;;;;5.15;4.10;;;6.90;99.90;;;;;;5090987;28;20207;-65
2024/02/14 05:04:46;;;;;;;6.75;4.00;;;6.90;99.90;;;;;;5090532;28;20218;-65
2024/02/14 05:07:13;;;;;;;4.13;3.30;;;6.90;99.90;;;;;;5090451;28;20287;-64
2024/02/14 05:09:40;;;;;;;6.22;4.13;;;6.90;99.90;;;;;;5090217;28;20197;-65
2024/02/14 05:12:10;;;;;;;4.13;3.25;;;6.90;99.90;;;;;;5090013;28;20225;-64
2024/02/14 05:14:40;;;;;;;7.43;3.80;;;6.90;99.90;;;;;;5091081;28;20284;-65
2024/02/14 05:17:07;;;;;;;5.40;3.65;;;6.90;99.90;;;;;;5091062;28;20200;-65
2024/02/14 05:19:34;;;;;;;5.22;3.53;;;7.00;99.90;;;;;;5101440;28;20197;-65
2024/02/14 05:22:02;;;;;;;7.15;3.95;;;6.90;99.90;;;;;;5098324;28;20219;-65
2024/02/14 05:24:29;;;;;;;5.00;3.92;;;6.90;99.90;;;;;;5081132;28;20226;-65
2024/02/14 05:26:55;;;;;;;7.43;3.97;;;6.90;99.90;;;;;;5082394;28;20197;-65
2024/02/14 05:29:22;;;;;;;6.22;4.28;;;6.90;99.90;;;;;;5079469;28;20209;-64
2024/02/14 05:31:49;;;;;;;9.15;4.20;;;6.90;99.90;;;;;;5078654;28;20221;-63
2024/02/14 05:34:16;;;;;;;5.18;3.75;;;7.00;99.90;;;;;;5079335;28;20225;-65
2024/02/14 05:36:45;;;;;;;6.25;4.40;;;7.00;99.90;;;;;;5077656;28;20217;-65
2024/02/14 05:39:15;;;;;;;9.20;4.38;;;6.90;99.90;;;;;;5076498;28;20205;-65
2024/02/14 05:41:42;;;;;;;7.32;4.50;;;7.00;99.90;;;;;;5076437;28;20207;-66
2024/02/14 05:44:09;;;;;;;5.68;4.30;;;7.00;99.90;;;;;;5076204;28;20221;-66
2024/02/14 05:46:36;;;;;;;4.57;4.10;;;7.00;99.90;;;;;;5076011;28;20209;-65
2024/02/14 05:49:03;;;;;;;5.53;4.40;;;7.10;99.90;;;;;;5076651;28;20206;-65
2024/02/14 05:51:30;;;;;;;8.80;3.83;;;7.10;99.90;;;;;;5076876;28;20552;-65
2024/02/14 05:53:57;;;;;;;4.97;3.50;;;7.20;99.90;;;;;;5078044;28;20242;-65
2024/02/14 05:56:25;;;;;;;5.78;3.90;;;7.20;99.90;;;;;;5077958;28;20197;-65
2024/02/14 05:58:52;;;;;;;7.20;4.00;;;7.20;99.90;;;;;;5078327;28;20198;-65
2024/02/14 06:01:19;;;;;;;6.72;4.00;;;7.20;99.90;;;;;;5078231;28;20197;-64
2024/02/14 06:03:45;;;;;;;6.35;4.55;;;7.30;99.90;;;;;;5078396;28;20221;-66
2024/02/14 06:06:12;;;;;;;6.93;3.85;;;7.30;99.90;;;;;;5077867;28;20207;-65
2024/02/14 06:08:39;;;;;;;6.65;3.25;;;7.30;99.90;;;;;;5077320;28;20201;-64
2024/02/14 06:11:06;;;;;;;11.07;3.60;;;7.30;99.90;;;;;;5077065;28;20213;-63
2024/02/14 06:13:35;;;;;;;5.78;3.75;;;7.30;99.90;;;;;;5076042;28;20236;-65
2024/02/14 06:16:02;;;;;;;7.35;3.95;;;7.30;99.90;;;;;;5075716;28;20201;-64
2024/02/14 06:18:29;;;;;;;6.10;3.70;;;7.30;99.90;;;;;;5076254;28;20575;-65
2024/02/14 06:20:55;;;;;;;4.38;3.50;;;7.30;99.90;;;;;;5076203;28;20202;-65
2024/02/14 06:23:22;;;;;;;3.88;3.47;;;7.30;99.90;;;;;;5077413;28;20221;-65
2024/02/14 06:25:49;;;;;;;4.15;3.53;;;7.30;99.90;;;;;;5076341;28;20206;-65
2024/02/14 06:28:16;;;;;;;5.93;3.60;;;7.30;99.90;;;;;;5076434;28;20203;-65
2024/02/14 06:30:44;;;;;;;5.90;3.63;;;7.30;99.90;;;;;;5078519;28;20208;-65
2024/02/14 06:33:10;;;;;;;5.53;3.97;;;7.40;99.90;;;;;;5086107;28;20220;-65
2024/02/14 06:35:37;;;;;;;5.53;3.60;;;7.40;99.90;;;;;;5081285;28;20204;-65
2024/02/14 06:38:05;;;;;;;4.68;4.20;;;7.40;99.90;;;;;;5081675;28;20202;-65
2024/02/14 06:40:32;;;;;;;6.10;3.78;;;7.40;99.90;;;;;;5081781;28;20202;-65
2024/02/14 06:42:59;;;;;;;6.47;3.55;;;7.40;99.90;;;;;;5080638;28;20209;-64
2024/02/14 06:45:27;;;;;;;7.22;3.55;;;7.40;99.90;;;;;;5080564;28;20218;-65
2024/02/14 06:47:55;;;;;;;3.78;3.10;;;7.40;99.90;;;;;;5083404;28;20728;-66
2024/02/14 06:50:25;;;;;;;7.55;3.65;;;7.40;99.90;;;;;;5077612;28;20212;-65
2024/02/14 06:52:52;;;;;;;4.75;3.22;;;7.40;99.90;;;;;;5074919;28;20592;-65
2024/02/14 06:55:18;;;;;;;9.10;4.10;;;7.50;99.90;;;;;;5075391;28;20275;-65
2024/02/14 06:57:45;;;;;;;3.35;3.03;;;7.50;99.90;;;;;;5075184;28;20571;-65
2024/02/14 07:00:13;;;;;;;5.80;3.80;;;7.40;99.90;;;;;;5075931;28;20206;-65
2024/02/14 07:02:40;;;;;;;4.75;3.60;;;7.50;99.90;;;;;;5080553;28;20213;-68
2024/02/14 07:05:12;;;;;;;4.65;3.30;;;7.50;99.90;;;;;;5080773;28;20244;-65
2024/02/14 07:07:39;;;;;;;3.90;3.30;;;7.50;99.90;;;;;;5079994;28;20256;-64
2024/02/14 07:10:07;;;;;;;4.40;3.55;;;7.50;99.90;;;;;;5079368;28;20256;-67
2024/02/14 07:12:35;;;;;;;4.68;3.55;;;7.50;99.90;;;;;;5076650;28;20245;-64
2024/02/14 07:15:04;;;;;;;4.32;3.92;;;7.50;99.90;;;;;;5075144;28;20736;-64
2024/02/14 07:17:30;;;;;;;4.07;3.45;;;7.50;99.90;;;;;;5076274;28;20203;-66
2024/02/14 07:19:57;;;;;;;3.50;3.20;;;7.50;99.90;;;;;;5075976;28;20208;-64
2024/02/14 07:22:25;;;;;;;5.43;3.55;;;7.50;99.90;;;;;;5074963;28;20194;-66
2024/02/14 07:24:53;;;;;;;7.15;3.15;;;7.60;99.90;;;;;;5075684;28;20711;-66
2024/02/14 07:27:20;;;;;;;6.35;3.15;;;7.60;99.90;;;;;;5075664;28;20206;-65
2024/02/14 07:29:47;;;;;;;5.18;3.22;;;7.60;99.90;;;;;;5075346;28;20206;-64
2024/02/14 07:32:14;;;;;;;3.65;3.30;;;7.60;99.90;;;;;;5075112;28;20709;-65
2024/02/14 07:34:41;;;;;;;3.20;2.90;;;7.60;99.90;;;;;;5074581;28;20222;-63
2024/02/14 07:37:08;;;;;;;3.03;2.72;;;7.60;99.90;;;;;;5074360;28;20202;-65
2024/02/14 07:39:36;;;;;;;6.25;2.75;;;7.70;99.90;;;;;;5074980;28;20201;-65
2024/02/14 07:42:03;;;;;;;3.40;2.95;;;7.70;99.90;;;;;;5074556;28;20206;-65
2024/02/14 07:44:30;;;;;;;2.65;2.42;;;7.60;99.90;;;;;;5074208;28;20730;-65
2024/02/14 07:46:57;;;;;;;5.07;2.92;;;7.60;99.90;;;;;;5076059;28;20210;-65
2024/02/14 07:49:24;;;;;;;4.57;3.13;;;7.70;99.90;;;;;;5079137;28;20250;-65
2024/02/14 07:51:50;;;;;;;2.60;2.40;;;7.70;99.90;;;;;;5076677;28;20552;-65
2024/02/14 07:54:19;;;;;;;5.57;2.97;;;7.70;99.90;;;;;;5075574;28;20656;-65
2024/02/14 07:56:47;;;;;;;3.35;2.70;;;7.70;99.90;;;;;;5075172;28;20251;-65
2024/02/14 07:59:13;;;;;;;3.70;2.65;;;7.70;99.90;;;;;;5075410;28;20208;-65
2024/02/14 08:01:40;;;;;;;3.30;2.80;;;7.70;99.90;;;;;;5075110;28;20205;-66
2024/02/14 08:04:07;;;;;;;2.95;2.75;;;7.80;99.90;;;;;;5076189;28;20218;-65
2024/02/14 08:06:34;;;;;;;3.67;3.30;;;7.80;99.90;;;;;;5076471;28;20201;-66
2024/02/14 08:09:02;;;;;;;5.28;3.72;;;7.80;99.90;;;;;;5077038;28;20230;-65
2024/02/14 08:11:29;;;;;;;4.53;3.45;;;7.90;99.90;;;;;;5076228;28;20211;-67
2024/02/14 08:13:57;;;;;;;3.78;2.70;;;7.90;99.90;;;;;;5076379;28;20753;-67
2024/02/14 08:16:24;;;;;;;2.78;2.35;;;7.90;99.90;;;;;;5075715;28;20216;-65
2024/02/14 08:18:58;;;;;;;4.65;3.25;;;8.00;99.90;;;;;;5076773;28;20209;-66
2024/02/14 08:21:25;;;;;;;4.22;2.45;;;8.00;99.90;;;;;;5076059;28;20193;-66
2024/02/14 08:23:52;;;;;;;4.53;2.70;;;8.00;99.90;;;;;;5075001;28;20284;-66
2024/02/14 08:26:18;;;;;;;3.42;2.63;;;8.00;99.90;;;;;;5074591;28;20210;-64
2024/02/14 08:28:47;;;;;;;2.08;1.85;;;8.00;99.90;;;;;;5074574;28;20214;-64
2024/02/14 08:31:15;;;;;;;3.20;2.15;;;8.00;99.90;;;;;;5074613;28;20259;-65
2024/02/14 08:33:41;;;;;;;2.45;2.25;;;8.10;99.90;;;;;;5075278;28;20233;-64
2024/02/14 08:36:09;;;;;;;3.05;2.75;;;8.10;99.90;;;;;;5076609;28;20204;-65
2024/02/14 08:38:36;;;;;;;2.42;2.22;;;8.10;99.90;;;;;;5075350;28;20199;-66
2024/02/14 08:41:03;;;;;;;3.63;2.60;;;8.20;99.90;;;;;;5075102;28;20209;-67
2024/02/14 08:43:30;;;;;;;2.95;2.20;;;8.20;99.90;;;;;;5074783;28;20213;-66
2024/02/14 08:45:57;;;;;;;2.50;2.30;;;8.30;99.90;;;;;;5074711;28;20205;-66
2024/02/14 08:48:27;;;;;;;3.00;2.45;;;8.30;99.90;;;;;;5075763;28;20214;-66
2024/02/14 08:50:54;;;;;;;1.52;1.42;;;8.30;99.90;;;;;;5076104;28;20328;-66
2024/02/14 08:53:20;;;;;;;4.32;2.30;;;8.30;99.90;;;;;;5077163;28;20229;-65
2024/02/14 08:55:47;;;;;;;3.70;2.33;;;8.30;99.90;;;;;;5078388;28;20698;-66
2024/02/14 08:58:14;;;;;;;2.35;2.15;;;8.30;99.90;;;;;;5078870;28;20214;-65
2024/02/14 09:00:41;;;;;;;4.50;1.83;;;8.30;99.90;;;;;;5081277;28;20201;-65
2024/02/14 09:03:08;;;;;;;2.70;1.80;;;8.40;99.90;;;;;;5082280;28;20207;-65
2024/02/14 09:05:38;;;;;;;2.03;1.83;;;8.30;99.90;;;;;;5083447;28;20232;-64
2024/02/14 09:08:05;;;;;;;2.30;2.10;;;8.30;99.90;;;;;;5080562;28;20194;-65
2024/02/14 09:10:32;;;;;;;2.65;1.90;;;8.40;99.90;;;;;;5079788;28;20202;-66
2024/02/14 09:13:00;;;;;;;2.25;1.65;;;8.40;99.90;;;;;;5079658;28;20272;-66
2024/02/14 09:15:27;;;;;;;4.18;1.90;;;8.40;99.90;;;;;;5079710;28;20230;-67
2024/02/14 09:17:55;;;;;;;2.22;2.03;;;8.50;99.90;;;;;;5080107;28;20206;-66
2024/02/14 09:20:21;;;;;;;3.00;2.40;;;8.50;99.90;;;;;;5079913;28;20647;-65
2024/02/14 09:22:50;;;;;;;3.47;2.80;;;8.50;99.90;;;;;;5081623;28;20214;-66
2024/02/14 09:25:16;;;;;;;3.97;2.95;;;8.60;99.90;;;;;;5080168;28;20223;-66
2024/02/14 09:27:43;;;;;;;3.72;3.30;;;8.60;99.90;;;;;;5080124;28;20206;-66
2024/02/14 09:30:11;;;;;;;3.95;3.15;;;8.60;99.90;;;;;;5080131;28;20335;-65
2024/02/14 09:32:38;;;;;;;6.28;4.25;;;8.70;99.90;;;;;;5079553;28;20206;-65
2024/02/14 09:35:06;;;;;;;6.03;5.18;;;8.70;99.90;;;;;;5080091;28;20716;-66
2024/02/14 09:37:33;;;;;;;7.35;5.75;;;8.80;99.90;;;;;;5081085;28;20207;-65
2024/02/14 09:40:01;;;;;;;6.68;5.97;;;8.80;99.90;;;;;;5079864;28;20209;-66
2024/02/14 09:42:35;;;;;;;7.00;6.30;;;8.90;99.90;;;;;;5080280;28;20206;-65
2024/02/14 09:45:02;;;;;;;7.83;6.30;;;9.00;99.90;;;;;;5079889;28;20222;-65
2024/02/14 09:47:33;;;;;;;7.20;6.60;;;9.10;99.90;;;;;;5080444;28;20511;-66
2024/02/14 09:50:03;;;;;;;17.42;9.75;;;9.20;99.90;;;;;;5081060;28;20187;-66
2024/02/14 09:52:33;;;;;;;9.63;6.70;;;9.30;99.90;;;;;;5079888;28;20293;-66
2024/02/14 09:55:04;;;;;;;7.40;6.70;;;9.50;99.90;;;;;;5080786;28;20556;-67
2024/02/14 09:57:32;;;;;;;8.00;7.20;;;9.60;99.90;;;;;;5080559;28;20426;-65
2024/02/14 10:00:00;;;;;;;7.37;6.60;;;9.60;99.90;;;;;;5083195;28;20214;-68
2024/02/14 10:02:27;;;;;;;7.50;6.80;;;9.70;99.90;;;;;;5081948;28;20443;-66
2024/02/14 10:04:54;;;;;;;7.20;6.50;;;9.80;99.90;;;;;;5081161;28;20488;-67
2024/02/14 10:07:20;;;;;;;7.43;6.13;;;9.80;99.90;;;;;;5081993;28;20441;-65
2024/02/14 10:09:48;;;;;;;6.87;6.27;;;9.90;99.90;;;;;;5084506;28;20443;-66
2024/02/14 10:12:17;;;;;;;7.07;6.40;;;9.90;99.90;;;;;;5086496;28;20478;-67
2024/02/14 10:14:45;;;;;;;8.17;6.37;;;10.00;99.90;;;;;;5085288;28;20490;-64
2024/02/14 10:17:18;;;;;;;8.63;6.73;;;10.00;99.90;;;;;;5086144;28;20481;-67
2024/02/14 10:19:56;;;;;;;7.33;6.07;;;10.00;99.90;;;;;;5086430;28;20428;-67
2024/02/14 10:22:22;;;;;;;7.17;6.47;;;10.00;99.90;;;;;;5084219;28;20930;-66
2024/02/14 10:24:49;;;;;;;7.07;6.37;;;10.00;99.90;;;;;;5083595;28;20468;-66
2024/02/14 10:27:17;;;;;;;7.93;6.30;;;10.10;99.90;;;;;;5083263;28;20450;-65
2024/02/14 10:29:44;;;;;;;6.13;5.60;;;10.10;99.90;;;;;;5082688;28;20452;-66
2024/02/14 10:32:11;;;;;;;6.03;5.43;;;10.10;99.90;;;;;;5083111;28;20456;-66
2024/02/14 10:34:39;;;;;;;5.07;4.57;;;10.20;99.90;;;;;;5081861;28;20481;-64
2024/02/14 10:37:07;;;;;;;5.90;5.30;;;10.20;99.90;;;;;;5083155;28;20498;-65
2024/02/14 10:39:38;;;;;;;6.60;4.53;;;10.20;99.90;;;;;;5084566;28;20495;-66
2024/02/14 10:42:06;;;;;;;5.27;4.77;;;10.20;99.90;;;;;;5086782;28;20442;-66
2024/02/14 10:44:36;;;;;;;6.30;5.53;;;10.30;99.90;;;;;;5085347;28;20991;-67
2024/02/14 10:47:07;;;;;;;6.00;5.40;;;10.30;99.90;;;;;;5084651;28;20462;-66
2024/02/14 10:49:35;;;;;;;5.53;5.03;;;10.30;99.90;;;;;;5085679;28;20431;-67
2024/02/14 10:52:07;;;;;;;5.30;4.80;;;10.30;99.90;;;;;;5085650;28;20454;-66
2024/02/14 10:54:36;;;;;;;5.30;4.90;;;10.30;99.90;;;;;;5084693;28;20494;-66
2024/02/14 10:57:11;;;;;;;5.53;5.00;;;10.30;99.90;;;;;;5084042;28;20448;-66
2024/02/14 10:59:42;;;;;;;4.53;4.13;;;10.40;99.90;;;;;;5083632;28;20433;-66
2024/02/14 11:02:09;;;;;;;5.40;4.63;;;10.40;99.90;;;;;;5086514;28;20427;-66
2024/02/14 11:04:37;;;;;;;4.53;4.07;;;10.40;99.90;;;;;;5087738;28;20458;-66
2024/02/14 11:07:04;;;;;;;4.63;4.23;;;10.40;99.90;;;;;;5084732;28;20550;-66
2024/02/14 11:09:34;;;;;;;4.47;4.03;;;10.50;99.90;;;;;;5083907;28;20449;-67
2024/02/14 11:12:02;;;;;;;5.47;4.97;;;10.50;99.90;;;;;;5087165;28;20450;-67
2024/02/14 11:14:32;;;;;;;5.80;4.93;;;10.50;99.90;;;;;;5087855;28;20488;-67
2024/02/14 11:17:00;;;;;;;7.03;5.10;;;10.60;99.90;;;;;;5086662;28;20425;-66
2024/02/14 11:19:33;;;;;;;14.63;5.37;;;10.60;99.90;;;;;;5084942;28;20454;-66
2024/02/14 11:22:10;;;;;;;6.30;4.50;;;10.70;99.90;;;;;;5084724;28;20492;-65
2024/02/14 11:24:38;;;;;;;5.30;4.80;;;10.80;99.90;;;;;;5083961;28;20451;-64
2024/02/14 11:27:10;;;;;;;5.20;4.70;;;10.80;99.90;;;;;;5084164;28;20456;-67
2024/02/14 11:29:37;;;;;;;5.00;4.53;;;10.90;99.90;;;;;;5084487;28;20402;-66
2024/02/14 11:32:09;;;;;;;4.83;4.33;;;11.00;99.90;;;;;;5084884;28;20824;-66
2024/02/14 11:34:36;;;;;;;4.20;3.90;;;11.00;99.90;;;;;;5084718;28;20490;-65
2024/02/14 11:37:04;;;;;;;5.23;4.40;;;11.00;99.90;;;;;;5086023;28;20469;-66
2024/02/14 11:39:33;;;;;;;5.00;4.57;;;11.10;99.90;;;;;;5084010;28;20447;-66
2024/02/14 11:41:59;;;;;;;5.77;5.17;;;11.10;99.90;;;;;;5084299;28;20443;-66
2024/02/14 11:44:26;;;;;;;4.90;4.40;;;11.10;99.90;;;;;;5082261;28;20463;-67
2024/02/14 11:46:53;;;;;;;4.83;4.23;;;11.20;99.90;;;;;;5081730;28;21003;-67
2024/02/14 11:49:22;;;;;;;3.97;3.60;;;11.30;99.90;;;;;;5082741;28;20442;-67
2024/02/14 11:51:49;;;;;;;5.73;4.10;;;11.30;99.90;;;;;;5079948;28;20452;-64
2024/02/14 11:54:17;;;;;;;5.97;4.37;;;11.30;99.90;;;;;;5081972;28;20511;-64
2024/02/14 11:56:44;;;;;;;7.90;4.40;;;11.40;99.90;;;;;;5081162;28;20500;-65
2024/02/14 11:59:11;;;;;;;4.57;4.17;;;11.40;99.90;;;;;;5082815;28;20454;-66
2024/02/14 12:01:39;;;;;;;4.90;4.50;;;11.40;99.90;;;;;;5085337;28;20443;-64
2024/02/14 12:04:08;;;;;;;6.73;4.93;;;11.40;99.90;;;;;;5085821;28;20459;-66
2024/02/14 12:06:37;;;;;;;8.80;4.13;;;11.40;99.90;;;;;;5086262;28;20441;-66
2024/02/14 12:09:05;;;;;;;4.23;3.83;;;11.40;99.90;;;;;;5084752;28;20454;-65
2024/02/14 12:11:33;;;;;;;4.70;4.30;;;11.40;99.90;;;;;;5084560;28;20482;-67
2024/02/14 12:14:03;;;;;;;4.77;4.37;;;11.40;99.90;;;;;;5085490;28;20483;-66
2024/02/14 12:16:31;;;;;;;5.20;4.70;;;11.40;99.90;;;;;;5085148;28;20430;-63
2024/02/14 12:19:08;;;;;;;5.33;4.90;;;11.40;99.90;;;;;;5083594;28;20463;-67
2024/02/14 12:21:37;;;;;;;6.20;5.60;;;11.40;99.90;;;;;;5085628;28;20434;-69
2024/02/14 12:24:05;;;;;;;6.13;5.53;;;11.30;99.90;;;;;;5086511;28;20461;-68
2024/02/14 12:26:32;;;;;;;5.87;5.10;;;11.20;99.90;;;;;;5086049;28;20472;-66
2024/02/14 12:29:01;;;;;;;6.20;5.60;;;11.20;99.90;;;;;;5087567;28;20500;-67
2024/02/14 12:31:30;;;;;;;7.67;6.00;;;11.20;99.90;;;;;;5087128;28;20467;-66
2024/02/14 12:33:59;;;;;;;6.67;6.07;;;11.20;99.90;;;;;;5089304;28;20513;-67
2024/02/14 12:36:26;;;;;;;6.30;5.70;;;11.20;99.90;;;;;;5089960;28;20537;-65
2024/02/14 12:38:55;;;;;;;6.20;5.60;;;11.20;99.90;;;;;;5088561;28;20456;-67
2024/02/14 12:41:23;;;;;;;6.17;5.53;;;11.20;99.90;;;;;;5088989;28;20457;-66
2024/02/14 12:43:50;;;;;;;5.83;5.30;;;11.20;99.90;;;;;;5088240;28;20484;-66
2024/02/14 12:46:17;;;;;;;7.13;6.50;;;11.20;99.90;;;;;;5089251;28;20451;-67
2024/02/14 12:48:44;;;;;;;6.30;5.70;;;11.20;99.90;;;;;;5088469;28;20454;-64
2024/02/14 12:51:11;;;;;;;6.53;5.93;;;11.30;99.90;;;;;;5090520;28;20442;-67
2024/02/14 12:53:38;;;;;;;6.70;6.10;;;11.30;99.90;;;;;;5089600;28;21010;-66
2024/02/14 12:56:07;;;;;;;6.10;5.60;;;11.30;99.90;;;;;;5089968;28;20499;-65
2024/02/14 12:58:34;;;;;;;7.73;6.73;;;11.30;99.90;;;;;;5088768;28;20445;-69